aviador You're here:

YPPD Decoded Metar

PORT HEDLAND in AUSTRALIA
Report Time2017-07-21 02:30:00
UTC Time2017-07-21 02:52:55
Flight Rules vfr VFR
Wind150° at 05 kt
W.Decomp.*RWY 14: 4.9 kt HW 0.8 kt RCW
RWY 18: 4.3 kt HW 2.6 kt LCW
W.Rank150° ranks 13
Current wind is below 150° avg. (8.1)
Visibility9999 m
Phenomena:N/A
Clouds:N/A
Expected CloudBase > 7,600 ft AGL from Temp-Dew spread
CeilingNone
Temp27°C (ISA +12)
Dew Point08°C (30% RH)
Heat Index26.4°C
AAT24.7°C
QNH1015 hPa
Density Alt1,490 ft
Elevation20 ft
Report Wrong Elevation
Raw Report
YPPD 210230Z AUTO 15005KT 9999 // NCD 27/08 Q1015=

Extra information for YPPD:More info

Metar Taf Metar & Taf Last 4 Metars F.Rules Stats Wind Profile Meteogram Temp Stats Airport Information Weather charts Add Link Nearby VenuesMetar ALERT Operation Metar Decoded Social comments